Time;durP1;ratioP1;P1;durP2;ratioP2;P2;SDS_P1;SDS_P2;PMS_P1;PMS_P2;Temp;Humidity;BMP_temperature;BMP_pressure;BME280_temperature;BME280_humidity;BME280_pressure;Samples;Min_cycle;Max_cycle;Signal;HPM_P1;HPM_P2
2023/12/27 00:00:15;;;;;;;4.27;1.60;;;6.50;1.00;;;;;;5102894;27;20236;-72
2023/12/27 00:02:42;;;;;;;3.08;1.30;;;6.50;1.00;;;;;;5108697;27;20453;-71
2023/12/27 00:05:10;;;;;;;5.00;1.88;;;6.50;1.00;;;;;;5104639;27;20244;-70
2023/12/27 00:07:37;;;;;;;12.68;2.60;;;6.40;1.00;;;;;;5105439;27;20246;-71
2023/12/27 00:10:04;;;;;;;3.45;1.75;;;6.30;1.00;;;;;;5106520;27;20232;-73
2023/12/27 00:12:33;;;;;;;4.25;1.42;;;6.20;1.00;;;;;;5108865;27;20240;-76
2023/12/27 00:15:00;;;;;;;5.15;1.60;;;6.20;1.00;;;;;;5108405;27;20277;-73
2023/12/27 00:17:27;;;;;;;5.82;1.92;;;6.10;1.00;;;;;;5105932;27;20235;-75
2023/12/27 00:19:54;;;;;;;5.22;2.15;;;6.00;1.00;;;;;;5105669;27;20310;-76
2023/12/27 00:22:22;;;;;;;4.25;1.73;;;6.00;1.00;;;;;;5103124;27;20636;-74
2023/12/27 00:24:49;;;;;;;5.97;1.67;;;5.90;1.00;;;;;;5108175;27;20235;-75
2023/12/27 00:27:16;;;;;;;7.53;1.95;;;5.80;1.00;;;;;;5105951;27;20248;-75
2023/12/27 00:29:45;;;;;;;6.93;2.08;;;5.80;1.00;;;;;;5105651;27;20926;-75
2023/12/27 00:32:12;;;;;;;6.80;1.52;;;5.70;1.00;;;;;;5104632;27;21660;-74
2023/12/27 00:34:39;;;;;;;7.07;2.30;;;5.70;1.00;;;;;;5107330;27;20242;-74
2023/12/27 00:37:07;;;;;;;6.03;2.22;;;5.60;1.00;;;;;;5106817;27;20690;-74
2023/12/27 00:39:34;;;;;;;7.90;2.20;;;5.60;1.00;;;;;;5108116;27;20239;-76
2023/12/27 00:42:01;;;;;;;7.38;2.75;;;5.60;1.00;;;;;;5107547;27;20251;-75
2023/12/27 00:44:29;;;;;;;6.75;1.90;;;5.50;1.00;;;;;;5103627;27;20236;-76
2023/12/27 00:46:57;;;;;;;4.35;1.70;;;5.50;1.00;;;;;;5103998;27;20243;-78
2023/12/27 00:49:24;;;;;;;6.43;2.00;;;5.50;1.00;;;;;;5105712;27;20433;-74
2023/12/27 00:51:51;;;;;;;6.35;1.75;;;5.50;1.00;;;;;;5106710;27;20720;-77
2023/12/27 00:54:19;;;;;;;4.60;1.98;;;5.40;1.00;;;;;;5105086;27;20243;-75
2023/12/27 00:56:47;;;;;;;5.15;1.80;;;5.40;1.00;;;;;;5108186;27;20306;-75
2023/12/27 00:59:14;;;;;;;5.30;2.10;;;5.40;1.00;;;;;;5108852;27;20980;-76
2023/12/27 01:01:43;;;;;;;4.72;1.73;;;5.40;1.00;;;;;;5110367;27;20755;-77
2023/12/27 01:04:12;;;;;;;5.32;1.95;;;5.30;1.00;;;;;;5111204;27;20235;-77
2023/12/27 01:06:38;;;;;;;6.50;2.17;;;5.30;1.00;;;;;;5111316;27;20243;-78
2023/12/27 01:09:07;;;;;;;6.50;1.90;;;5.30;1.00;;;;;;5104783;27;20240;-76
2023/12/27 01:11:34;;;;;;;3.83;1.60;;;5.30;1.00;;;;;;5108743;27;20235;-75
2023/12/27 01:14:02;;;;;;;6.03;2.28;;;5.20;1.00;;;;;;5106713;27;20243;-76
2023/12/27 01:16:29;;;;;;;9.10;2.30;;;5.20;1.00;;;;;;5110523;27;20231;-76
2023/12/27 01:18:55;;;;;;;7.93;1.80;;;5.20;1.00;;;;;;5112691;27;20321;-75
2023/12/27 01:21:24;;;;;;;10.15;2.20;;;5.20;1.00;;;;;;5113018;27;20240;-73
2023/12/27 01:23:52;;;;;;;10.68;2.97;;;5.20;1.00;;;;;;5116232;27;20263;-71
2023/12/27 01:26:19;;;;;;;3.88;1.85;;;5.30;1.00;;;;;;5112764;27;20236;-73
2023/12/27 01:28:46;;;;;;;4.45;2.08;;;5.30;1.00;;;;;;5114664;27;20243;-72
2023/12/27 01:31:13;;;;;;;7.85;2.58;;;5.30;1.00;;;;;;5098957;27;20252;-72
2023/12/27 01:33:41;;;;;;;5.43;1.75;;;5.30;1.00;;;;;;5096184;27;20318;-72
2023/12/27 01:36:09;;;;;;;3.63;1.58;;;5.30;1.00;;;;;;5108352;27;20691;-70
2023/12/27 01:38:39;;;;;;;5.70;2.28;;;5.40;1.00;;;;;;5112385;27;20236;-71
2023/12/27 01:41:06;;;;;;;5.63;2.30;;;5.30;1.00;;;;;;5108096;27;20281;-72
2023/12/27 01:43:33;;;;;;;5.05;2.00;;;5.30;1.00;;;;;;5111726;27;20309;-72
2023/12/27 01:46:00;;;;;;;5.95;2.67;;;5.30;1.00;;;;;;5108987;27;20243;-73
2023/12/27 01:48:27;;;;;;;8.27;2.00;;;5.40;1.00;;;;;;5110178;27;20236;-72
2023/12/27 01:50:56;;;;;;;9.50;3.03;;;5.40;1.00;;;;;;5111214;27;20243;-73
2023/12/27 01:53:25;;;;;;;4.68;1.60;;;5.40;1.00;;;;;;5111768;27;20242;-72
2023/12/27 01:55:55;;;;;;;4.60;2.17;;;5.40;1.00;;;;;;5113361;27;20235;-71
2023/12/27 01:58:23;;;;;;;5.68;2.72;;;5.40;1.00;;;;;;5109132;27;20236;-72
2023/12/27 02:00:50;;;;;;;5.32;2.20;;;5.40;1.00;;;;;;5109344;27;21028;-72
2023/12/27 02:03:18;;;;;;;7.88;1.95;;;5.40;1.00;;;;;;5111988;27;20707;-76
2023/12/27 02:05:46;;;;;;;8.88;1.70;;;5.30;1.00;;;;;;5113436;27;20235;-72
2023/12/27 02:08:15;;;;;;;4.65;2.75;;;5.20;1.00;;;;;;5110645;27;20301;-72
2023/12/27 02:10:43;;;;;;;9.88;2.85;;;5.20;1.00;;;;;;5108227;27;20224;-73
2023/12/27 02:13:11;;;;;;;6.22;2.20;;;5.10;1.00;;;;;;5111864;27;20240;-73
2023/12/27 02:15:38;;;;;;;8.50;2.22;;;5.10;1.00;;;;;;5111080;27;20246;-72
2023/12/27 02:18:07;;;;;;;5.70;2.50;;;5.10;1.00;;;;;;5105575;27;20243;-74
2023/12/27 02:20:38;;;;;;;6.13;3.13;;;5.00;1.00;;;;;;5110331;27;20240;-72
2023/12/27 02:23:08;;;;;;;7.88;2.38;;;5.00;1.00;;;;;;5107501;27;20297;-72
2023/12/27 02:25:37;;;;;;;4.80;2.00;;;5.00;1.00;;;;;;5106792;27;20243;-72
2023/12/27 02:28:04;;;;;;;7.47;2.10;;;5.00;1.00;;;;;;5107335;27;20240;-72
2023/12/27 02:30:33;;;;;;;10.80;3.15;;;4.90;1.00;;;;;;5105629;27;20235;-73
2023/12/27 02:33:00;;;;;;;11.40;4.68;;;4.90;1.00;;;;;;5110374;27;20879;-77
2023/12/27 02:35:27;;;;;;;14.10;6.80;;;4.90;1.00;;;;;;5106678;27;20261;-76
2023/12/27 02:37:55;;;;;;;8.13;4.47;;;4.90;1.00;;;;;;5106523;27;20381;-75
2023/12/27 02:40:21;;;;;;;15.20;10.48;;;4.90;1.00;;;;;;5106842;27;20254;-77
2023/12/27 02:42:50;;;;;;;23.05;16.65;;;4.80;1.00;;;;;;5107653;27;20240;-75
2023/12/27 02:45:17;;;;;;;34.70;27.60;;;4.80;1.00;;;;;;5103977;27;20231;-76
2023/12/27 02:47:44;;;;;;;51.15;42.28;;;4.80;1.00;;;;;;5105321;27;20298;-75
2023/12/27 02:50:11;;;;;;;45.90;31.50;;;4.80;1.00;;;;;;5107677;27;20252;-75
2023/12/27 02:52:38;;;;;;;49.88;36.70;;;4.80;1.00;;;;;;5106455;27;20293;-75
2023/12/27 02:55:06;;;;;;;32.78;23.98;;;4.80;1.00;;;;;;5106024;27;20297;-74
2023/12/27 02:57:34;;;;;;;26.67;15.07;;;4.80;1.00;;;;;;5108329;27;20243;-76
2023/12/27 03:00:06;;;;;;;19.33;9.45;;;4.80;1.00;;;;;;5104962;27;20229;-75
2023/12/27 03:02:33;;;;;;;8.93;6.03;;;4.80;1.00;;;;;;5104654;27;20344;-76
2023/12/27 03:05:00;;;;;;;10.45;4.05;;;4.80;1.00;;;;;;5107491;27;20236;-75
2023/12/27 03:07:27;;;;;;;6.65;2.65;;;4.80;1.00;;;;;;5106089;27;20236;-76
2023/12/27 03:09:54;;;;;;;9.20;3.42;;;4.80;1.00;;;;;;5105809;27;20751;-75
2023/12/27 03:12:21;;;;;;;6.10;2.22;;;4.80;1.00;;;;;;5104880;27;20274;-76
2023/12/27 03:14:50;;;;;;;6.25;1.90;;;4.80;1.00;;;;;;5103920;27;20242;-76
2023/12/27 03:17:21;;;;;;;13.20;3.20;;;4.80;1.00;;;;;;5104227;27;20239;-76
2023/12/27 03:19:48;;;;;;;5.55;1.73;;;4.70;1.00;;;;;;5106978;27;20238;-73
2023/12/27 03:22:15;;;;;;;5.15;1.90;;;4.70;1.00;;;;;;5104323;27;20283;-74
2023/12/27 03:24:42;;;;;;;4.45;2.10;;;4.80;1.00;;;;;;5106748;27;20730;-74
2023/12/27 03:27:09;;;;;;;5.30;2.30;;;4.80;1.00;;;;;;5105482;27;20266;-74
2023/12/27 03:29:36;;;;;;;7.93;3.15;;;4.70;1.00;;;;;;5108000;27;20706;-74
2023/12/27 03:32:03;;;;;;;11.82;4.15;;;4.70;1.00;;;;;;5107505;27;20239;-74
2023/12/27 03:34:31;;;;;;;9.13;4.00;;;4.70;1.00;;;;;;5106220;27;21200;-75
2023/12/27 03:36:58;;;;;;;11.07;3.90;;;4.70;1.00;;;;;;5106553;27;20231;-75
2023/12/27 03:39:25;;;;;;;7.75;2.33;;;4.70;1.00;;;;;;5107397;27;20227;-76
2023/12/27 03:41:52;;;;;;;8.05;2.67;;;4.70;1.00;;;;;;5105933;27;20348;-71
2023/12/27 03:44:19;;;;;;;4.70;2.33;;;4.70;1.00;;;;;;5106401;27;20611;-73
2023/12/27 03:46:46;;;;;;;5.70;2.70;;;4.70;1.00;;;;;;5104422;27;20643;-71
2023/12/27 03:49:13;;;;;;;6.47;2.28;;;4.70;1.00;;;;;;5105533;27;20265;-71
2023/12/27 03:51:42;;;;;;;6.38;1.88;;;4.60;1.00;;;;;;5107518;27;20240;-71
2023/12/27 03:54:09;;;;;;;11.13;2.70;;;4.70;1.00;;;;;;5107151;27;20243;-71
2023/12/27 03:56:36;;;;;;;8.90;2.30;;;4.70;1.00;;;;;;5104058;27;21122;-72
2023/12/27 03:59:05;;;;;;;5.30;1.73;;;4.60;1.00;;;;;;5106183;27;21240;-72
2023/12/27 04:01:32;;;;;;;4.28;1.98;;;4.60;1.00;;;;;;5106725;27;20749;-71
2023/12/27 04:03:59;;;;;;;6.25;2.40;;;4.60;1.00;;;;;;5107291;27;21090;-71
2023/12/27 04:06:26;;;;;;;6.68;2.22;;;4.60;1.00;;;;;;5108881;27;20236;-72
2023/12/27 04:08:55;;;;;;;6.68;1.67;;;4.60;1.00;;;;;;5108128;27;20386;-71
2023/12/27 04:11:22;;;;;;;6.15;2.00;;;4.60;1.00;;;;;;5106102;27;20238;-71
2023/12/27 04:13:49;;;;;;;7.25;2.10;;;4.60;1.00;;;;;;5105919;27;20231;-71
2023/12/27 04:16:16;;;;;;;9.65;2.67;;;4.60;1.00;;;;;;5102326;27;20238;-71
2023/12/27 04:18:43;;;;;;;9.43;1.98;;;4.60;1.00;;;;;;5110745;27;20231;-72
2023/12/27 04:21:10;;;;;;;6.78;2.30;;;4.60;1.00;;;;;;5104685;27;21015;-72
2023/12/27 04:23:37;;;;;;;8.02;2.60;;;4.60;1.00;;;;;;5107428;27;20236;-70
2023/12/27 04:26:05;;;;;;;9.98;2.97;;;4.60;1.00;;;;;;5107142;27;20238;-72
2023/12/27 04:28:32;;;;;;;8.13;2.80;;;4.60;1.00;;;;;;5109320;27;20242;-72
2023/12/27 04:30:59;;;;;;;7.28;2.47;;;4.60;1.00;;;;;;5104826;27;20227;-71
2023/12/27 04:33:26;;;;;;;7.50;2.97;;;4.60;1.00;;;;;;5109715;27;20290;-71
2023/12/27 04:35:53;;;;;;;7.38;2.60;;;4.60;1.00;;;;;;5112897;27;20326;-73
2023/12/27 04:38:20;;;;;;;5.60;2.22;;;4.60;1.00;;;;;;5109099;27;20244;-71
2023/12/27 04:40:47;;;;;;;6.63;1.77;;;4.60;1.00;;;;;;5109390;27;20243;-74
2023/12/27 04:43:16;;;;;;;4.45;1.60;;;4.50;1.00;;;;;;5107947;27;20240;-73
2023/12/27 04:45:43;;;;;;;4.90;2.28;;;4.50;1.00;;;;;;5108025;27;20235;-72
2023/12/27 04:48:10;;;;;;;6.15;2.55;;;4.50;1.00;;;;;;5109801;27;20227;-72
2023/12/27 04:50:37;;;;;;;8.43;1.90;;;4.60;1.00;;;;;;5110299;27;20232;-71
2023/12/27 04:53:04;;;;;;;2.85;1.38;;;4.50;1.00;;;;;;5110955;27;20262;-71
2023/12/27 04:55:31;;;;;;;6.82;3.10;;;4.50;1.00;;;;;;5111061;27;20243;-72
2023/12/27 04:57:58;;;;;;;12.52;2.63;;;4.50;1.00;;;;;;5106349;27;20674;-71
2023/12/27 05:00:27;;;;;;;5.20;2.58;;;4.50;1.00;;;;;;5110829;27;20252;-70
2023/12/27 05:02:54;;;;;;;9.25;2.47;;;4.50;1.00;;;;;;5109825;27;20240;-72
2023/12/27 05:05:21;;;;;;;5.10;2.25;;;4.50;1.00;;;;;;5103588;27;20231;-72
2023/12/27 05:07:48;;;;;;;5.70;2.40;;;4.40;1.00;;;;;;5112026;27;20242;-71
2023/12/27 05:10:15;;;;;;;4.72;2.00;;;4.40;1.00;;;;;;5108396;27;20239;-72
2023/12/27 05:12:42;;;;;;;8.68;2.00;;;4.40;1.00;;;;;;5110940;27;20312;-73
2023/12/27 05:15:10;;;;;;;8.52;2.33;;;4.40;1.00;;;;;;5108438;27;20259;-72
2023/12/27 05:17:38;;;;;;;3.28;2.03;;;4.40;1.00;;;;;;5108843;27;20228;-73
2023/12/27 05:20:07;;;;;;;7.53;2.47;;;4.40;1.00;;;;;;5108689;27;20234;-72
2023/12/27 05:22:39;;;;;;;6.15;2.15;;;4.40;1.00;;;;;;5108543;27;20236;-72
2023/12/27 05:25:09;;;;;;;12.15;3.72;;;4.40;1.00;;;;;;5105229;27;20244;-74
2023/12/27 05:27:36;;;;;;;6.13;2.15;;;4.40;1.00;;;;;;5110135;27;20231;-73
2023/12/27 05:30:07;;;;;;;8.98;2.42;;;4.40;1.00;;;;;;5109176;27;20247;-72
2023/12/27 05:32:34;;;;;;;5.63;1.80;;;4.40;1.00;;;;;;5107955;27;20243;-70
2023/12/27 05:35:03;;;;;;;6.13;2.33;;;4.40;1.00;;;;;;5107571;27;20590;-72
2023/12/27 05:37:30;;;;;;;4.88;2.00;;;4.40;1.00;;;;;;5105751;27;20235;-73
2023/12/27 05:39:57;;;;;;;5.47;2.05;;;4.40;1.00;;;;;;5108204;27;20235;-79
2023/12/27 05:42:25;;;;;;;12.13;3.00;;;4.30;1.00;;;;;;5106165;27;20391;-72
2023/12/27 05:44:52;;;;;;;7.25;2.20;;;4.30;1.00;;;;;;5108516;27;20232;-72
2023/12/27 05:47:19;;;;;;;12.60;2.50;;;4.30;1.00;;;;;;5107601;27;20254;-70
2023/12/27 05:49:46;;;;;;;8.25;2.33;;;4.30;1.00;;;;;;5108051;27;20262;-71
2023/12/27 05:52:15;;;;;;;6.78;1.85;;;4.30;1.00;;;;;;5110049;27;20230;-71
2023/12/27 05:54:41;;;;;;;4.22;2.00;;;4.30;1.00;;;;;;5110198;27;20309;-72
2023/12/27 05:57:09;;;;;;;5.07;1.58;;;4.30;1.00;;;;;;5111306;27;20622;-70
2023/12/27 05:59:37;;;;;;;6.78;2.60;;;4.30;1.00;;;;;;5109750;27;21512;-70
2023/12/27 06:02:04;;;;;;;5.07;1.88;;;4.20;1.00;;;;;;5111451;27;20266;-74
2023/12/27 06:04:34;;;;;;;8.40;2.25;;;4.20;1.00;;;;;;5107921;27;20240;-74
2023/12/27 06:07:01;;;;;;;5.57;3.33;;;4.20;1.00;;;;;;5109954;27;20228;-75
2023/12/27 06:09:31;;;;;;;5.38;2.60;;;4.20;1.00;;;;;;5108767;27;20226;-74
2023/12/27 06:11:59;;;;;;;8.93;2.65;;;4.20;1.00;;;;;;5108651;27;20239;-73
2023/12/27 06:14:26;;;;;;;7.60;3.55;;;4.20;1.00;;;;;;5111110;27;20233;-75
2023/12/27 06:16:53;;;;;;;8.18;2.85;;;4.20;1.00;;;;;;5108484;27;20240;-74
2023/12/27 06:19:19;;;;;;;9.05;2.78;;;4.20;1.00;;;;;;5103560;27;20289;-74
2023/12/27 06:21:47;;;;;;;7.10;2.35;;;4.20;1.00;;;;;;5109945;27;20243;-74
2023/12/27 06:24:14;;;;;;;5.60;2.60;;;4.20;1.00;;;;;;5107705;27;20228;-77
2023/12/27 06:26:43;;;;;;;3.63;1.80;;;4.10;1.00;;;;;;5110945;27;20232;-77
2023/12/27 06:29:12;;;;;;;7.68;2.15;;;4.10;1.00;;;;;;5108137;27;20239;-76
2023/12/27 06:31:39;;;;;;;8.52;3.20;;;4.10;1.00;;;;;;5106520;27;20239;-76
2023/12/27 06:34:07;;;;;;;7.03;2.10;;;4.10;1.00;;;;;;5107590;27;20242;-76
2023/12/27 06:36:34;;;;;;;10.27;2.70;;;4.10;1.00;;;;;;5110925;27;20239;-75
2023/12/27 06:39:01;;;;;;;7.63;2.85;;;4.20;1.00;;;;;;5110625;27;20657;-76
2023/12/27 06:41:29;;;;;;;4.07;2.10;;;4.20;1.00;;;;;;5107953;27;20241;-75
2023/12/27 06:43:57;;;;;;;9.20;2.13;;;4.20;1.00;;;;;;5109030;27;20615;-74
2023/12/27 06:46:24;;;;;;;14.55;2.92;;;4.30;1.00;;;;;;5105997;27;20372;-75
2023/12/27 06:48:51;;;;;;;6.75;2.28;;;4.30;1.00;;;;;;5106442;27;20256;-75
2023/12/27 06:51:18;;;;;;;7.57;3.15;;;4.40;1.00;;;;;;5107284;27;20707;-75
2023/12/27 06:53:45;;;;;;;8.02;2.28;;;4.30;1.00;;;;;;5103841;27;20239;-74
2023/12/27 06:56:12;;;;;;;3.20;1.90;;;4.40;1.00;;;;;;5104774;27;20409;-75
2023/12/27 06:58:39;;;;;;;7.60;2.70;;;4.40;1.00;;;;;;5106260;27;20324;-76
2023/12/27 07:01:09;;;;;;;8.38;2.63;;;4.40;1.00;;;;;;5104786;27;20291;-74
2023/12/27 07:03:36;;;;;;;5.68;2.97;;;4.30;1.00;;;;;;5109922;27;20235;-75
2023/12/27 07:06:03;;;;;;;8.07;2.00;;;4.30;1.00;;;;;;5105148;27;20286;-75
2023/12/27 07:08:31;;;;;;;9.02;2.40;;;4.20;1.00;;;;;;5105025;27;20289;-75
2023/12/27 07:10:58;;;;;;;9.60;2.58;;;4.20;1.00;;;;;;5107588;27;20239;-76
2023/12/27 07:13:25;;;;;;;7.15;2.10;;;4.10;1.00;;;;;;5110893;27;20236;-76
2023/12/27 07:15:53;;;;;;;5.18;2.20;;;4.10;1.00;;;;;;5104549;27;20240;-75
2023/12/27 07:18:21;;;;;;;8.63;3.05;;;4.10;1.00;;;;;;5103289;27;20753;-76
2023/12/27 07:20:48;;;;;;;8.70;2.38;;;4.10;1.00;;;;;;5103224;27;20244;-76
2023/12/27 07:23:15;;;;;;;8.40;3.17;;;4.10;1.00;;;;;;5106415;27;20235;-75
2023/12/27 07:25:42;;;;;;;7.53;3.22;;;4.10;1.00;;;;;;5108011;27;20341;-74
2023/12/27 07:28:09;;;;;;;12.55;2.83;;;4.00;1.00;;;;;;5105992;27;20320;-77
2023/12/27 07:30:36;;;;;;;6.60;2.88;;;4.00;1.00;;;;;;5111221;27;20685;-74
2023/12/27 07:33:04;;;;;;;7.80;2.40;;;4.00;1.00;;;;;;5107212;27;20238;-78
2023/12/27 07:35:33;;;;;;;8.18;2.17;;;4.00;1.00;;;;;;5106236;27;20235;-75
2023/12/27 07:38:00;;;;;;;8.88;2.97;;;4.00;1.00;;;;;;5107481;27;20237;-76
2023/12/27 07:40:28;;;;;;;11.50;2.45;;;4.00;1.00;;;;;;5108320;27;20235;-75
2023/12/27 07:42:55;;;;;;;8.40;3.08;;;4.00;1.00;;;;;;5110045;27;22421;-76
2023/12/27 07:45:22;;;;;;;9.63;3.00;;;4.00;1.00;;;;;;5107230;27;20247;-74
2023/12/27 07:47:49;;;;;;;8.27;2.45;;;4.10;1.00;;;;;;5104584;27;20231;-77
2023/12/27 07:50:16;;;;;;;11.63;2.53;;;4.10;1.00;;;;;;5108893;27;20758;-74
2023/12/27 07:52:45;;;;;;;6.45;2.70;;;4.10;1.00;;;;;;5108038;27;20235;-76
2023/12/27 07:55:12;;;;;;;9.65;3.33;;;4.20;1.00;;;;;;5111001;27;20235;-75
2023/12/27 07:57:40;;;;;;;9.05;3.05;;;4.20;1.00;;;;;;5109607;27;20607;-75
2023/12/27 08:00:09;;;;;;;9.45;2.78;;;4.30;1.00;;;;;;5106138;27;20230;-74
2023/12/27 08:02:37;;;;;;;10.38;2.70;;;4.40;1.00;;;;;;5110546;27;20258;-75
2023/12/27 08:05:04;;;;;;;6.03;2.83;;;4.40;1.00;;;;;;5109225;27;20240;-76
2023/12/27 08:07:31;;;;;;;7.68;3.35;;;4.50;1.00;;;;;;5109208;27;20226;-75
2023/12/27 08:10:00;;;;;;;7.70;3.00;;;4.60;1.00;;;;;;5114447;27;20727;-75
2023/12/27 08:12:27;;;;;;;10.63;2.63;;;4.70;1.00;;;;;;5110074;27;20247;-75
2023/12/27 08:14:56;;;;;;;3.65;2.42;;;4.80;1.00;;;;;;5116026;27;20234;-75
2023/12/27 08:17:23;;;;;;;10.15;2.97;;;4.90;1.00;;;;;;5114009;27;20297;-75
2023/12/27 08:19:50;;;;;;;5.18;2.65;;;5.10;1.00;;;;;;5118284;27;21548;-76
2023/12/27 08:22:17;;;;;;;6.32;3.10;;;5.40;1.00;;;;;;5112654;27;20337;-79
2023/12/27 08:24:45;;;;;;;13.73;3.25;;;5.90;1.00;;;;;;5111105;27;20317;-73
2023/12/27 08:27:13;;;;;;;11.30;4.10;;;6.50;1.00;;;;;;5107590;27;20728;-75
2023/12/27 08:29:41;;;;;;;12.68;3.63;;;6.90;1.00;;;;;;5109332;27;20448;-78
2023/12/27 08:32:09;;;;;;;6.63;3.72;;;6.90;1.00;;;;;;5110891;27;20245;-76
2023/12/27 08:34:36;;;;;;;7.10;2.73;;;6.80;1.00;;;;;;5108715;27;20263;-75
2023/12/27 08:37:03;;;;;;;7.93;3.50;;;6.60;1.00;;;;;;5111247;27;20521;-76
2023/12/27 08:39:30;;;;;;;9.68;3.92;;;6.50;1.00;;;;;;5107184;27;20471;-75
2023/12/27 08:41:57;;;;;;;7.60;2.72;;;6.40;1.00;;;;;;5110094;27;20242;-76
2023/12/27 08:44:26;;;;;;;8.83;3.43;;;6.50;1.00;;;;;;5110480;27;20731;-77
2023/12/27 08:46:54;;;;;;;7.50;2.80;;;6.50;1.00;;;;;;5094896;27;20491;-75
2023/12/27 08:49:21;;;;;;;7.78;4.10;;;6.40;1.00;;;;;;5110251;27;20481;-75
2023/12/27 08:51:48;;;;;;;9.13;3.40;;;6.40;1.00;;;;;;5113490;27;20242;-76
2023/12/27 08:54:16;;;;;;;5.90;2.80;;;6.40;1.00;;;;;;5110526;27;21028;-77
2023/12/27 08:56:43;;;;;;;7.80;2.90;;;6.30;1.00;;;;;;5112248;27;20450;-76
2023/12/27 08:59:10;;;;;;;6.72;3.42;;;6.30;1.00;;;;;;5110408;27;20680;-75
2023/12/27 09:01:38;;;;;;;11.87;3.70;;;6.30;1.00;;;;;;5108556;27;20248;-75
2023/12/27 09:04:06;;;;;;;7.97;3.33;;;6.30;1.00;;;;;;5110938;27;20470;-74
2023/12/27 09:06:33;;;;;;;6.93;3.60;;;6.30;1.00;;;;;;5110639;27;20480;-76
2023/12/27 09:09:00;;;;;;;8.40;2.70;;;6.40;1.00;;;;;;5110008;27;20461;-76
2023/12/27 09:11:27;;;;;;;8.53;3.10;;;6.40;1.00;;;;;;5108511;27;20303;-75
2023/12/27 09:13:54;;;;;;;9.90;3.63;;;6.70;1.00;;;;;;5111491;27;20533;-76
2023/12/27 09:16:21;;;;;;;8.63;4.07;;;7.00;1.00;;;;;;5105976;27;20467;-78
2023/12/27 09:18:50;;;;;;;9.70;2.93;;;7.40;1.00;;;;;;5104374;27;20543;-76
2023/12/27 09:21:17;;;;;;;7.83;3.87;;;7.60;1.00;;;;;;5111046;27;20468;-76
2023/12/27 09:23:44;;;;;;;9.60;3.57;;;7.80;1.00;;;;;;5110233;27;20456;-77
2023/12/27 09:26:14;;;;;;;13.47;4.37;;;7.90;1.00;;;;;;5111001;27;20474;-76
2023/12/27 09:28:41;;;;;;;6.60;2.93;;;8.10;1.00;;;;;;5104876;27;20448;-80
2023/12/27 09:31:09;;;;;;;15.53;6.20;;;8.10;1.00;;;;;;5112264;27;20458;-75
2023/12/27 09:33:36;;;;;;;10.93;4.07;;;8.10;1.00;;;;;;5110055;27;21757;-75
2023/12/27 09:36:05;;;;;;;11.20;3.47;;;8.00;1.00;;;;;;5113208;27;21051;-75
2023/12/27 09:38:33;;;;;;;11.27;3.53;;;8.00;1.00;;;;;;5111810;27;20455;-76
2023/12/27 09:41:03;;;;;;;9.87;3.73;;;8.10;1.00;;;;;;5113803;27;21200;-78
2023/12/27 09:43:31;;;;;;;6.60;2.90;;;8.20;1.00;;;;;;5110081;27;21236;-77
2023/12/27 09:46:00;;;;;;;4.10;2.60;;;8.10;1.00;;;;;;5112605;27;20586;-77
2023/12/27 09:48:29;;;;;;;7.50;4.57;;;8.20;1.00;;;;;;5109565;27;20486;-75
2023/12/27 09:51:00;;;;;;;10.23;4.07;;;8.10;1.00;;;;;;5107744;27;20949;-75
2023/12/27 09:53:28;;;;;;;8.70;3.40;;;8.10;1.00;;;;;;5111602;27;20441;-74
2023/12/27 09:55:56;;;;;;;7.60;3.30;;;8.10;1.00;;;;;;5108911;27;20470;-76
2023/12/27 09:58:26;;;;;;;11.70;3.70;;;8.10;1.00;;;;;;5115805;27;20511;-76
2023/12/27 10:00:54;;;;;;;6.60;3.00;;;8.60;1.00;;;;;;5110985;27;20521;-75
2023/12/27 10:03:32;;;;;;;14.17;4.50;;;9.40;1.00;;;;;;5109651;27;20515;-75
2023/12/27 10:06:12;;;;;;;8.03;3.00;;;9.70;1.00;;;;;;5110658;27;20523;-74
2023/12/27 10:08:41;;;;;;;6.20;2.83;;;10.10;1.00;;;;;;5106144;27;20506;-76
2023/12/27 10:11:10;;;;;;;6.10;2.80;;;10.20;1.00;;;;;;5106988;27;20469;-74
2023/12/27 10:13:39;;;;;;;7.43;2.67;;;10.20;1.00;;;;;;5108691;27;20453;-76
2023/12/27 10:16:07;;;;;;;6.70;2.70;;;9.90;1.00;;;;;;5110681;27;20484;-74
2023/12/27 10:18:34;;;;;;;10.40;3.70;;;9.50;1.00;;;;;;5108019;27;20925;-74
2023/12/27 10:21:02;;;;;;;11.87;4.37;;;9.50;1.00;;;;;;5106951;27;20478;-76
2023/12/27 10:23:29;;;;;;;6.37;2.57;;;9.90;1.00;;;;;;5109620;27;20451;-76
2023/12/27 10:25:58;;;;;;;13.00;3.60;;;10.00;1.00;;;;;;5110996;27;20556;-75
2023/12/27 10:28:25;;;;;;;4.90;3.00;;;10.10;1.00;;;;;;5098423;27;20460;-74
2023/12/27 10:30:53;;;;;;;6.60;2.20;;;10.00;1.00;;;;;;5104173;27;20460;-74
2023/12/27 10:33:20;;;;;;;6.43;3.03;;;9.90;1.00;;;;;;5109088;27;20518;-75
2023/12/27 10:35:48;;;;;;;8.43;3.37;;;9.60;1.00;;;;;;5109078;27;20485;-77
2023/12/27 10:38:15;;;;;;;8.33;3.20;;;9.50;1.00;;;;;;5108825;27;20555;-75
2023/12/27 10:40:44;;;;;;;7.63;3.50;;;9.70;1.00;;;;;;5105478;27;20470;-78
2023/12/27 10:43:12;;;;;;;7.77;3.20;;;9.60;1.00;;;;;;5108102;27;20446;-76
2023/12/27 10:45:40;;;;;;;8.07;3.20;;;9.50;1.00;;;;;;5108192;27;20465;-77
2023/12/27 10:48:10;;;;;;;9.10;4.00;;;9.60;1.00;;;;;;5106949;27;20463;-75
2023/12/27 10:50:38;;;;;;;5.37;3.20;;;9.70;1.00;;;;;;5107512;27;20930;-76
2023/12/27 10:53:07;;;;;;;7.77;2.70;;;10.00;1.00;;;;;;5110071;27;20456;-76
2023/12/27 10:55:35;;;;;;;9.27;3.30;;;10.00;1.00;;;;;;5107772;27;21340;-76
2023/12/27 10:58:05;;;;;;;14.00;4.43;;;10.00;1.00;;;;;;5107987;27;20449;-76
2023/12/27 11:00:34;;;;;;;6.80;2.70;;;10.10;1.00;;;;;;5103446;27;20460;-75
2023/12/27 11:03:12;;;;;;;4.60;2.43;;;9.70;1.00;;;;;;5108752;27;20523;-76
2023/12/27 11:05:41;;;;;;;9.00;2.87;;;9.60;1.00;;;;;;5111609;27;20534;-76
2023/12/27 11:08:11;;;;;;;6.00;3.10;;;9.60;1.00;;;;;;5098573;27;20485;-75
2023/12/27 11:10:40;;;;;;;8.03;3.30;;;9.80;1.00;;;;;;5101977;27;20466;-76
2023/12/27 11:13:10;;;;;;;4.73;2.30;;;10.10;1.00;;;;;;5109108;27;20541;-76
2023/12/27 11:15:44;;;;;;;7.27;3.90;;;10.30;1.00;;;;;;5108125;27;20469;-75
2023/12/27 11:18:11;;;;;;;9.93;3.77;;;10.80;1.00;;;;;;5103946;27;20562;-76
2023/12/27 11:20:40;;;;;;;9.03;3.53;;;11.30;1.00;;;;;;5111433;27;21287;-77
2023/12/27 11:23:08;;;;;;;6.40;3.40;;;11.20;1.00;;;;;;5106791;27;20454;-79
2023/12/27 11:25:36;;;;;;;7.57;3.20;;;10.90;1.00;;;;;;5094833;27;21203;-76
2023/12/27 11:28:03;;;;;;;6.27;2.40;;;10.70;1.00;;;;;;5108588;27;21706;-74
2023/12/27 11:30:33;;;;;;;6.00;2.97;;;10.80;1.00;;;;;;5110495;27;20814;-76
2023/12/27 11:33:01;;;;;;;4.27;2.70;;;10.80;1.00;;;;;;5107993;27;20445;-77
2023/12/27 11:35:30;;;;;;;4.30;2.47;;;10.50;1.00;;;;;;5110220;27;20540;-75
2023/12/27 11:38:15;;;;;;;4.43;2.60;;;10.00;1.00;;;;;;5109957;27;20561;-78
2023/12/27 11:40:44;;;;;;;6.80;3.50;;;9.80;1.00;;;;;;5110204;27;21058;-76
2023/12/27 11:43:11;;;;;;;11.40;2.43;;;9.30;1.00;;;;;;5105398;27;20493;-76
2023/12/27 11:45:59;;;;;;;7.60;3.47;;;9.30;1.00;;;;;;5106725;27;20480;-76
2023/12/27 11:48:29;;;;;;;5.10;2.43;;;9.50;1.00;;;;;;5102546;27;20465;-75
2023/12/27 11:50:57;;;;;;;5.57;2.90;;;9.50;1.00;;;;;;5108273;27;20470;-76
2023/12/27 11:53:26;;;;;;;6.80;4.00;;;9.40;1.00;;;;;;5102112;27;21575;-71
2023/12/27 11:55:53;;;;;;;7.00;2.80;;;9.40;1.00;;;;;;5106919;27;21682;-74
2023/12/27 11:58:31;;;;;;;10.30;3.83;;;9.60;1.00;;;;;;5097862;27;20473;-75
2023/12/27 12:01:20;;;;;;;4.87;2.73;;;10.00;1.00;;;;;;5092334;27;20541;-75
2023/12/27 12:03:56;;;;;;;5.10;2.70;;;10.20;1.00;;;;;;5107593;27;20482;-71
2023/12/27 12:06:43;;;;;;;4.60;2.17;;;10.40;1.00;;;;;;5104440;27;20597;-71
2023/12/27 12:09:11;;;;;;;3.60;2.20;;;10.30;1.00;;;;;;5095182;27;20469;-72
2023/12/27 12:11:38;;;;;;;9.17;3.30;;;10.30;1.00;;;;;;5104178;27;20493;-75
2023/12/27 12:14:06;;;;;;;5.43;2.90;;;10.40;1.00;;;;;;5105314;27;20450;-71
2023/12/27 12:16:33;;;;;;;5.47;2.10;;;10.40;1.00;;;;;;5104684;27;20484;-71
2023/12/27 12:19:05;;;;;;;8.43;2.60;;;10.60;1.00;;;;;;5105007;27;20449;-72
2023/12/27 12:21:38;;;;;;;5.13;2.53;;;10.70;1.00;;;;;;5108886;27;20456;-70
2023/12/27 12:24:08;;;;;;;8.10;3.07;;;10.90;1.00;;;;;;5105487;27;20468;-74
2023/12/27 12:26:36;;;;;;;7.40;2.70;;;11.00;1.00;;;;;;5107711;27;21114;-70
2023/12/27 12:29:07;;;;;;;2.97;2.27;;;10.80;1.00;;;;;;5105580;27;21164;-70
2023/12/27 12:31:35;;;;;;;8.70;2.67;;;10.70;1.00;;;;;;5104267;27;20601;-70
2023/12/27 12:34:03;;;;;;;12.03;3.63;;;10.60;1.00;;;;;;5106626;27;20542;-70
2023/12/27 12:36:30;;;;;;;8.50;2.57;;;10.50;1.00;;;;;;5104682;27;20675;-74
2023/12/27 12:38:58;;;;;;;4.93;2.50;;;10.40;1.00;;;;;;5104288;27;20441;-72
2023/12/27 12:41:25;;;;;;;8.40;3.77;;;10.20;1.00;;;;;;5107291;27;20463;-72
2023/12/27 12:43:52;;;;;;;7.43;3.50;;;10.00;1.00;;;;;;5105965;27;20454;-73
2023/12/27 12:46:19;;;;;;;5.03;2.13;;;9.90;1.00;;;;;;5105975;27;20527;-73
2023/12/27 12:48:49;;;;;;;5.53;2.23;;;9.80;1.00;;;;;;5107955;27;20445;-71
2023/12/27 12:51:19;;;;;;;9.73;2.47;;;9.50;1.00;;;;;;5103185;27;20486;-76
2023/12/27 12:53:47;;;;;;;5.83;2.53;;;9.40;1.00;;;;;;5108199;27;20462;-71
2023/12/27 12:56:15;;;;;;;6.50;3.07;;;9.60;1.00;;;;;;5108952;27;21027;-70
2023/12/27 12:58:44;;;;;;;5.30;2.43;;;9.80;1.00;;;;;;5090328;27;20450;-72
2023/12/27 13:01:13;;;;;;;5.00;2.40;;;9.70;1.00;;;;;;5108613;27;20461;-72
2023/12/27 13:03:43;;;;;;;5.30;2.80;;;9.40;1.00;;;;;;5111852;27;20445;-74
2023/12/27 13:06:13;;;;;;;6.07;2.60;;;9.20;1.00;;;;;;5107150;27;21012;-74
2023/12/27 13:08:42;;;;;;;8.63;3.07;;;9.20;1.00;;;;;;5112275;27;20442;-77